sensor_id;sensor_type;location;lat;lon;timestamp;pressure;altitude;pressure_sealevel;temperature;humidity
16613;BME280;8419;52.358;9.752;2023-06-04T00:02:03;101490.00;;;22.44;21.12
16613;BME280;8419;52.358;9.752;2023-06-04T00:04:49;101492.00;;;22.42;21.22
16613;BME280;8419;52.358;9.752;2023-06-04T00:07:35;101493.00;;;22.40;21.33
16613;BME280;8419;52.358;9.752;2023-06-04T00:10:20;101491.00;;;22.40;21.42
16613;BME280;8419;52.358;9.752;2023-06-04T00:13:06;101489.00;;;22.41;21.46
16613;BME280;8419;52.358;9.752;2023-06-04T00:15:51;101492.00;;;22.42;21.52
16613;BME280;8419;52.358;9.752;2023-06-04T00:18:37;101485.00;;;22.39;21.64
16613;BME280;8419;52.358;9.752;2023-06-04T00:21:22;101484.00;;;22.33;21.76
16613;BME280;8419;52.358;9.752;2023-06-04T00:24:07;101490.00;;;22.32;21.82
16613;BME280;8419;52.358;9.752;2023-06-04T00:26:53;101494.00;;;22.31;21.90
16613;BME280;8419;52.358;9.752;2023-06-04T00:29:39;101493.00;;;22.24;22.05
16613;BME280;8419;52.358;9.752;2023-06-04T00:32:26;101488.00;;;22.17;22.15
16613;BME280;8419;52.358;9.752;2023-06-04T00:35:11;101486.00;;;22.20;22.23
16613;BME280;8419;52.358;9.752;2023-06-04T00:37:56;101490.00;;;22.12;22.33
16613;BME280;8419;52.358;9.752;2023-06-04T00:40:43;101488.00;;;22.08;22.43
16613;BME280;8419;52.358;9.752;2023-06-04T00:43:30;101487.00;;;22.09;22.47
16613;BME280;8419;52.358;9.752;2023-06-04T00:46:16;101488.00;;;22.11;22.51
16613;BME280;8419;52.358;9.752;2023-06-04T00:49:03;101481.00;;;22.10;22.58
16613;BME280;8419;52.358;9.752;2023-06-04T00:51:50;101487.00;;;22.08;22.64
16613;BME280;8419;52.358;9.752;2023-06-04T00:54:36;101487.00;;;22.00;22.81
16613;BME280;8419;52.358;9.752;2023-06-04T00:57:23;101486.00;;;22.02;22.82
16613;BME280;8419;52.358;9.752;2023-06-04T01:00:10;101484.00;;;21.99;22.91
16613;BME280;8419;52.358;9.752;2023-06-04T01:02:59;101491.00;;;21.97;22.94
16613;BME280;8419;52.358;9.752;2023-06-04T01:05:54;101489.00;;;21.94;23.00
16613;BME280;8419;52.358;9.752;2023-06-04T01:08:44;101493.00;;;21.96;23.06
16613;BME280;8419;52.358;9.752;2023-06-04T01:11:34;101486.00;;;21.96;23.03
16613;BME280;8419;52.358;9.752;2023-06-04T01:14:20;101486.00;;;21.96;23.11
16613;BME280;8419;52.358;9.752;2023-06-04T01:17:13;101485.00;;;21.84;23.20
16613;BME280;8419;52.358;9.752;2023-06-04T01:20:15;101482.00;;;21.85;23.30
16613;BME280;8419;52.358;9.752;2023-06-04T01:23:18;101486.00;;;21.85;23.32
16613;BME280;8419;52.358;9.752;2023-06-04T01:26:05;101479.00;;;21.84;23.33
16613;BME280;8419;52.358;9.752;2023-06-04T01:28:51;101479.00;;;21.81;23.36
16613;BME280;8419;52.358;9.752;2023-06-04T01:31:37;101473.00;;;21.78;23.42
16613;BME280;8419;52.358;9.752;2023-06-04T01:34:23;101478.00;;;21.67;23.56
16613;BME280;8419;52.358;9.752;2023-06-04T01:37:08;101479.00;;;21.69;23.60
16613;BME280;8419;52.358;9.752;2023-06-04T01:39:53;101471.00;;;21.72;23.57
16613;BME280;8419;52.358;9.752;2023-06-04T01:42:40;101474.00;;;21.58;23.77
16613;BME280;8419;52.358;9.752;2023-06-04T01:45:27;101476.00;;;21.58;23.81
16613;BME280;8419;52.358;9.752;2023-06-04T01:48:12;101473.00;;;21.51;23.91
16613;BME280;8419;52.358;9.752;2023-06-04T01:50:58;101475.00;;;21.57;23.86
16613;BME280;8419;52.358;9.752;2023-06-04T01:53:43;101473.00;;;21.53;23.91
16613;BME280;8419;52.358;9.752;2023-06-04T01:56:28;101481.00;;;21.47;24.05
16613;BME280;8419;52.358;9.752;2023-06-04T01:59:13;101478.00;;;21.48;24.04
16613;BME280;8419;52.358;9.752;2023-06-04T02:02:00;101479.00;;;21.48;24.14
16613;BME280;8419;52.358;9.752;2023-06-04T02:04:47;101487.00;;;21.47;24.22
16613;BME280;8419;52.358;9.752;2023-06-04T02:07:36;101474.00;;;21.33;24.48
16613;BME280;8419;52.358;9.752;2023-06-04T02:10:25;101475.00;;;21.27;24.64
16613;BME280;8419;52.358;9.752;2023-06-04T02:13:10;101477.00;;;21.25;24.80
16613;BME280;8419;52.358;9.752;2023-06-04T02:15:55;101477.00;;;21.25;24.87
16613;BME280;8419;52.358;9.752;2023-06-04T02:18:41;101472.00;;;21.22;25.18
16613;BME280;8419;52.358;9.752;2023-06-04T02:21:26;101469.00;;;21.20;25.37
16613;BME280;8419;52.358;9.752;2023-06-04T02:24:13;101469.00;;;21.14;25.67
16613;BME280;8419;52.358;9.752;2023-06-04T02:26:58;101475.00;;;21.05;26.02
16613;BME280;8419;52.358;9.752;2023-06-04T02:29:44;101473.00;;;21.10;26.19
16613;BME280;8419;52.358;9.752;2023-06-04T02:32:29;101476.00;;;21.07;26.48
16613;BME280;8419;52.358;9.752;2023-06-04T02:35:15;101475.00;;;21.03;26.71
16613;BME280;8419;52.358;9.752;2023-06-04T02:38:00;101475.00;;;21.05;26.81
16613;BME280;8419;52.358;9.752;2023-06-04T02:40:45;101475.00;;;20.96;26.88
16613;BME280;8419;52.358;9.752;2023-06-04T02:43:30;101474.00;;;20.88;26.97
16613;BME280;8419;52.358;9.752;2023-06-04T02:46:15;101470.00;;;20.79;27.23
16613;BME280;8419;52.358;9.752;2023-06-04T02:49:01;101477.00;;;20.84;27.29
16613;BME280;8419;52.358;9.752;2023-06-04T02:51:46;101487.00;;;20.78;27.47
16613;BME280;8419;52.358;9.752;2023-06-04T02:54:31;101487.00;;;20.83;27.55
16613;BME280;8419;52.358;9.752;2023-06-04T02:57:17;101491.00;;;20.84;27.60
16613;BME280;8419;52.358;9.752;2023-06-04T03:00:04;101494.00;;;20.87;27.56
16613;BME280;8419;52.358;9.752;2023-06-04T03:02:56;101494.00;;;20.81;27.63
16613;BME280;8419;52.358;9.752;2023-06-04T03:05:46;101489.00;;;20.68;27.78
16613;BME280;8419;52.358;9.752;2023-06-04T03:08:31;101498.00;;;20.67;27.63
16613;BME280;8419;52.358;9.752;2023-06-04T03:11:17;101503.00;;;20.64;27.62
16613;BME280;8419;52.358;9.752;2023-06-04T03:14:05;101504.00;;;20.61;27.67
16613;BME280;8419;52.358;9.752;2023-06-04T03:16:50;101501.00;;;20.60;27.72
16613;BME280;8419;52.358;9.752;2023-06-04T03:19:36;101502.00;;;20.63;27.70
16613;BME280;8419;52.358;9.752;2023-06-04T03:22:22;101499.00;;;20.55;27.83
16613;BME280;8419;52.358;9.752;2023-06-04T03:25:09;101502.00;;;20.60;27.77
16613;BME280;8419;52.358;9.752;2023-06-04T03:27:54;101498.00;;;20.50;28.02
16613;BME280;8419;52.358;9.752;2023-06-04T03:30:40;101503.00;;;20.57;27.93
16613;BME280;8419;52.358;9.752;2023-06-04T03:33:26;101495.00;;;20.48;28.13
16613;BME280;8419;52.358;9.752;2023-06-04T03:36:11;101493.00;;;20.35;28.36
16613;BME280;8419;52.358;9.752;2023-06-04T03:38:57;101495.00;;;20.43;28.33
16613;BME280;8419;52.358;9.752;2023-06-04T03:41:43;101497.00;;;20.45;28.29
16613;BME280;8419;52.358;9.752;2023-06-04T03:44:30;101500.00;;;20.52;28.17
16613;BME280;8419;52.358;9.752;2023-06-04T03:47:15;101489.00;;;20.38;28.31
16613;BME280;8419;52.358;9.752;2023-06-04T03:50:00;101502.00;;;20.44;28.27
16613;BME280;8419;52.358;9.752;2023-06-04T03:52:46;101501.00;;;20.39;28.35
16613;BME280;8419;52.358;9.752;2023-06-04T03:55:31;101499.00;;;20.39;28.39
16613;BME280;8419;52.358;9.752;2023-06-04T03:58:17;101499.00;;;20.41;28.38
16613;BME280;8419;52.358;9.752;2023-06-04T04:01:03;101494.00;;;20.41;28.36
16613;BME280;8419;52.358;9.752;2023-06-04T04:03:50;101497.00;;;20.44;28.31
16613;BME280;8419;52.358;9.752;2023-06-04T04:06:35;101495.00;;;20.48;28.25
16613;BME280;8419;52.358;9.752;2023-06-04T04:09:22;101499.00;;;20.53;28.22
16613;BME280;8419;52.358;9.752;2023-06-04T04:12:08;101498.00;;;20.54;28.22
16613;BME280;8419;52.358;9.752;2023-06-04T04:14:53;101496.00;;;20.63;28.14
16613;BME280;8419;52.358;9.752;2023-06-04T04:17:39;101492.00;;;20.69;28.02
16613;BME280;8419;52.358;9.752;2023-06-04T04:20:25;101498.00;;;20.74;27.95
16613;BME280;8419;52.358;9.752;2023-06-04T04:23:10;101497.00;;;20.70;27.94
16613;BME280;8419;52.358;9.752;2023-06-04T04:25:56;101496.00;;;20.72;27.93
16613;BME280;8419;52.358;9.752;2023-06-04T04:28:43;101496.00;;;20.79;27.84
16613;BME280;8419;52.358;9.752;2023-06-04T04:31:29;101491.00;;;20.82;27.82
16613;BME280;8419;52.358;9.752;2023-06-04T04:34:15;101501.00;;;20.84;27.81
16613;BME280;8419;52.358;9.752;2023-06-04T04:37:01;101497.00;;;20.87;27.74
16613;BME280;8419;52.358;9.752;2023-06-04T04:39:48;101497.00;;;20.91;27.69
16613;BME280;8419;52.358;9.752;2023-06-04T04:42:37;101494.00;;;20.95;27.63
16613;BME280;8419;52.358;9.752;2023-06-04T04:45:23;101495.00;;;21.04;27.52
16613;BME280;8419;52.358;9.752;2023-06-04T04:48:08;101500.00;;;21.01;27.53
16613;BME280;8419;52.358;9.752;2023-06-04T04:50:54;101504.00;;;21.03;27.48
16613;BME280;8419;52.358;9.752;2023-06-04T04:53:39;101496.00;;;21.04;27.51
16613;BME280;8419;52.358;9.752;2023-06-04T04:56:24;101504.00;;;21.06;27.53
16613;BME280;8419;52.358;9.752;2023-06-04T04:59:11;101502.00;;;21.08;27.50
16613;BME280;8419;52.358;9.752;2023-06-04T05:01:56;101504.00;;;21.11;27.41
16613;BME280;8419;52.358;9.752;2023-06-04T05:04:42;101504.00;;;21.09;27.39
16613;BME280;8419;52.358;9.752;2023-06-04T05:07:27;101510.00;;;21.19;27.26
16613;BME280;8419;52.358;9.752;2023-06-04T05:10:13;101506.00;;;21.20;27.30
16613;BME280;8419;52.358;9.752;2023-06-04T05:12:59;101515.00;;;21.24;27.31
16613;BME280;8419;52.358;9.752;2023-06-04T05:15:46;101515.00;;;21.18;27.39
16613;BME280;8419;52.358;9.752;2023-06-04T05:18:32;101516.00;;;21.27;27.31
16613;BME280;8419;52.358;9.752;2023-06-04T05:21:18;101510.00;;;21.30;27.26
16613;BME280;8419;52.358;9.752;2023-06-04T05:24:04;101521.00;;;21.30;27.24
16613;BME280;8419;52.358;9.752;2023-06-04T05:26:50;101511.00;;;21.35;27.14
16613;BME280;8419;52.358;9.752;2023-06-04T05:29:36;101509.00;;;21.37;27.10
16613;BME280;8419;52.358;9.752;2023-06-04T05:32:22;101513.00;;;21.42;27.07
16613;BME280;8419;52.358;9.752;2023-06-04T05:35:09;101518.00;;;21.43;27.05
16613;BME280;8419;52.358;9.752;2023-06-04T05:37:55;101521.00;;;21.48;27.02
16613;BME280;8419;52.358;9.752;2023-06-04T05:40:41;101526.00;;;21.51;26.96
16613;BME280;8419;52.358;9.752;2023-06-04T05:43:26;101521.00;;;21.45;27.04
16613;BME280;8419;52.358;9.752;2023-06-04T05:46:12;101529.00;;;21.48;26.99
16613;BME280;8419;52.358;9.752;2023-06-04T05:48:58;101524.00;;;21.48;26.99
16613;BME280;8419;52.358;9.752;2023-06-04T05:51:44;101530.00;;;21.51;26.92
16613;BME280;8419;52.358;9.752;2023-06-04T05:54:30;101531.00;;;21.50;26.90
16613;BME280;8419;52.358;9.752;2023-06-04T05:57:15;101532.00;;;21.59;26.79
16613;BME280;8419;52.358;9.752;2023-06-04T06:00:00;101528.00;;;21.77;26.61
16613;BME280;8419;52.358;9.752;2023-06-04T06:02:46;101533.00;;;21.71;26.75
16613;BME280;8419;52.358;9.752;2023-06-04T06:05:33;101532.00;;;21.70;26.71
16613;BME280;8419;52.358;9.752;2023-06-04T06:08:20;101532.00;;;21.70;26.71
16613;BME280;8419;52.358;9.752;2023-06-04T06:11:06;101530.00;;;21.74;26.74
16613;BME280;8419;52.358;9.752;2023-06-04T06:13:52;101539.00;;;21.79;26.72
16613;BME280;8419;52.358;9.752;2023-06-04T06:16:38;101537.00;;;21.83;26.69
16613;BME280;8419;52.358;9.752;2023-06-04T06:19:23;101544.00;;;21.87;26.61
16613;BME280;8419;52.358;9.752;2023-06-04T06:22:09;101538.00;;;21.88;26.62
16613;BME280;8419;52.358;9.752;2023-06-04T06:24:55;101545.00;;;21.91;26.57
16613;BME280;8419;52.358;9.752;2023-06-04T06:27:45;101548.00;;;21.93;26.55
16613;BME280;8419;52.358;9.752;2023-06-04T06:30:30;101544.00;;;22.00;26.52
16613;BME280;8419;52.358;9.752;2023-06-04T06:33:16;101543.00;;;22.03;26.48
16613;BME280;8419;52.358;9.752;2023-06-04T06:36:06;101549.00;;;22.06;26.45
16613;BME280;8419;52.358;9.752;2023-06-04T06:38:52;101545.00;;;22.08;26.49
16613;BME280;8419;52.358;9.752;2023-06-04T06:41:37;101558.00;;;22.14;26.45
16613;BME280;8419;52.358;9.752;2023-06-04T06:44:23;101553.00;;;22.13;26.41
16613;BME280;8419;52.358;9.752;2023-06-04T06:47:09;101555.00;;;22.26;26.22
16613;BME280;8419;52.358;9.752;2023-06-04T06:49:55;101552.00;;;22.30;26.18
16613;BME280;8419;52.358;9.752;2023-06-04T06:52:40;101557.00;;;22.36;26.27
16613;BME280;8419;52.358;9.752;2023-06-04T06:55:26;101552.00;;;22.43;26.24
16613;BME280;8419;52.358;9.752;2023-06-04T06:58:11;101554.00;;;22.50;26.16
16613;BME280;8419;52.358;9.752;2023-06-04T07:00:56;101560.00;;;22.61;26.03
16613;BME280;8419;52.358;9.752;2023-06-04T07:03:42;101567.00;;;22.65;26.03
16613;BME280;8419;52.358;9.752;2023-06-04T07:06:27;101565.00;;;22.73;25.96
16613;BME280;8419;52.358;9.752;2023-06-04T07:09:14;101561.00;;;22.74;26.02
16613;BME280;8419;52.358;9.752;2023-06-04T07:11:59;101560.00;;;22.80;25.96
16613;BME280;8419;52.358;9.752;2023-06-04T07:14:45;101558.00;;;22.85;25.89
16613;BME280;8419;52.358;9.752;2023-06-04T07:17:30;101559.00;;;22.89;25.86
16613;BME280;8419;52.358;9.752;2023-06-04T07:20:16;101559.00;;;23.00;25.75
16613;BME280;8419;52.358;9.752;2023-06-04T07:23:02;101556.00;;;23.19;25.59
16613;BME280;8419;52.358;9.752;2023-06-04T07:25:47;101557.00;;;23.10;25.71
16613;BME280;8419;52.358;9.752;2023-06-04T07:28:33;101560.00;;;23.15;25.68
16613;BME280;8419;52.358;9.752;2023-06-04T07:31:18;101564.00;;;23.33;25.51
16613;BME280;8419;52.358;9.752;2023-06-04T07:34:04;101560.00;;;23.45;25.36
16613;BME280;8419;52.358;9.752;2023-06-04T07:36:49;101554.00;;;23.53;25.26
16613;BME280;8419;52.358;9.752;2023-06-04T07:39:35;101545.00;;;23.65;25.14
16613;BME280;8419;52.358;9.752;2023-06-04T07:42:20;101558.00;;;23.71;25.14
16613;BME280;8419;52.358;9.752;2023-06-04T07:45:10;101556.00;;;23.76;25.12
16613;BME280;8419;52.358;9.752;2023-06-04T07:47:55;101555.00;;;23.87;25.05
16613;BME280;8419;52.358;9.752;2023-06-04T07:50:40;101557.00;;;23.93;25.00
16613;BME280;8419;52.358;9.752;2023-06-04T07:53:26;101559.00;;;24.10;24.83
16613;BME280;8419;52.358;9.752;2023-06-04T07:56:12;101560.00;;;24.19;24.70
16613;BME280;8419;52.358;9.752;2023-06-04T07:58:59;101563.00;;;24.24;24.60
16613;BME280;8419;52.358;9.752;2023-06-04T08:01:46;101562.00;;;24.30;24.58
16613;BME280;8419;52.358;9.752;2023-06-04T08:04:32;101563.00;;;24.23;24.62
16613;BME280;8419;52.358;9.752;2023-06-04T08:07:18;101562.00;;;24.36;24.47
16613;BME280;8419;52.358;9.752;2023-06-04T08:10:04;101559.00;;;24.49;24.31
16613;BME280;8419;52.358;9.752;2023-06-04T08:12:50;101570.00;;;24.68;24.11
16613;BME280;8419;52.358;9.752;2023-06-04T08:15:36;101566.00;;;24.79;23.89
16613;BME280;8419;52.358;9.752;2023-06-04T08:18:22;101574.00;;;24.87;23.63
16613;BME280;8419;52.358;9.752;2023-06-04T08:21:09;101566.00;;;24.98;23.52
16613;BME280;8419;52.358;9.752;2023-06-04T08:23:56;101561.00;;;25.05;23.46
16613;BME280;8419;52.358;9.752;2023-06-04T08:26:41;101572.00;;;25.13;23.30
16613;BME280;8419;52.358;9.752;2023-06-04T08:29:27;101571.00;;;25.24;23.22
16613;BME280;8419;52.358;9.752;2023-06-04T08:32:12;101569.00;;;25.35;23.13
16613;BME280;8419;52.358;9.752;2023-06-04T08:34:58;101563.00;;;25.35;23.14
16613;BME280;8419;52.358;9.752;2023-06-04T08:37:44;101569.00;;;25.42;23.02
16613;BME280;8419;52.358;9.752;2023-06-04T08:40:29;101568.00;;;25.51;22.84
16613;BME280;8419;52.358;9.752;2023-06-04T08:43:15;101574.00;;;25.64;22.60
16613;BME280;8419;52.358;9.752;2023-06-04T08:46:01;101576.00;;;25.67;22.57
16613;BME280;8419;52.358;9.752;2023-06-04T08:48:59;101561.00;;;25.72;22.50
16613;BME280;8419;52.358;9.752;2023-06-04T08:51:48;101576.00;;;25.85;22.12
16613;BME280;8419;52.358;9.752;2023-06-04T08:54:34;101576.00;;;25.91;22.10
16613;BME280;8419;52.358;9.752;2023-06-04T08:57:20;101579.00;;;25.99;21.81
16613;BME280;8419;52.358;9.752;2023-06-04T09:00:08;101577.00;;;26.09;21.67
16613;BME280;8419;52.358;9.752;2023-06-04T09:02:54;101581.00;;;26.17;21.57
16613;BME280;8419;52.358;9.752;2023-06-04T09:05:40;101577.00;;;26.30;21.43
16613;BME280;8419;52.358;9.752;2023-06-04T09:08:33;101581.00;;;26.42;21.23
16613;BME280;8419;52.358;9.752;2023-06-04T09:11:19;101579.00;;;26.51;21.12
16613;BME280;8419;52.358;9.752;2023-06-04T09:14:08;101573.00;;;26.59;20.84
16613;BME280;8419;52.358;9.752;2023-06-04T09:16:56;101580.00;;;26.67;20.71
16613;BME280;8419;52.358;9.752;2023-06-04T09:19:43;101580.00;;;26.77;20.46
16613;BME280;8419;52.358;9.752;2023-06-04T09:22:33;101571.00;;;26.83;20.33
16613;BME280;8419;52.358;9.752;2023-06-04T09:25:29;101576.00;;;26.91;20.13
16613;BME280;8419;52.358;9.752;2023-06-04T09:28:14;101575.00;;;26.96;20.07
16613;BME280;8419;52.358;9.752;2023-06-04T09:31:00;101574.00;;;27.06;19.99
16613;BME280;8419;52.358;9.752;2023-06-04T09:33:49;101562.00;;;27.20;19.86
16613;BME280;8419;52.358;9.752;2023-06-04T09:36:36;101573.00;;;27.38;19.65
16613;BME280;8419;52.358;9.752;2023-06-04T09:39:21;101569.00;;;27.60;19.51
16613;BME280;8419;52.358;9.752;2023-06-04T09:42:08;101570.00;;;27.62;19.49
16613;BME280;8419;52.358;9.752;2023-06-04T09:44:54;101567.00;;;27.74;19.46
16613;BME280;8419;52.358;9.752;2023-06-04T09:47:40;101571.00;;;27.90;19.46
16613;BME280;8419;52.358;9.752;2023-06-04T09:50:26;101563.00;;;28.01;19.40
16613;BME280;8419;52.358;9.752;2023-06-04T09:53:15;101572.00;;;28.11;19.17
16613;BME280;8419;52.358;9.752;2023-06-04T09:56:02;101568.00;;;28.25;19.06
16613;BME280;8419;52.358;9.752;2023-06-04T09:58:49;101567.00;;;28.44;18.80
16613;BME280;8419;52.358;9.752;2023-06-04T10:01:38;101564.00;;;28.52;18.55
16613;BME280;8419;52.358;9.752;2023-06-04T10:04:24;101570.00;;;28.56;18.44
16613;BME280;8419;52.358;9.752;2023-06-04T10:07:11;101567.00;;;28.67;18.32
16613;BME280;8419;52.358;9.752;2023-06-04T10:09:57;101562.00;;;28.77;18.37
16613;BME280;8419;52.358;9.752;2023-06-04T10:12:43;101563.00;;;28.94;18.29
16613;BME280;8419;52.358;9.752;2023-06-04T10:15:29;101562.00;;;29.16;18.07
16613;BME280;8419;52.358;9.752;2023-06-04T10:18:17;101559.00;;;29.35;17.84
16613;BME280;8419;52.358;9.752;2023-06-04T10:21:03;101553.00;;;29.50;17.64
16613;BME280;8419;52.358;9.752;2023-06-04T10:23:50;101550.00;;;29.55;17.55
16613;BME280;8419;52.358;9.752;2023-06-04T10:26:35;101555.00;;;29.70;17.39
16613;BME280;8419;52.358;9.752;2023-06-04T10:29:22;101559.00;;;29.83;17.24
16613;BME280;8419;52.358;9.752;2023-06-04T10:32:08;101568.00;;;29.88;17.08
16613;BME280;8419;52.358;9.752;2023-06-04T10:34:53;101559.00;;;29.82;17.12
16613;BME280;8419;52.358;9.752;2023-06-04T10:37:39;101551.00;;;29.87;16.86
16613;BME280;8419;52.358;9.752;2023-06-04T10:40:32;101551.00;;;29.84;16.88
16613;BME280;8419;52.358;9.752;2023-06-04T10:43:18;101547.00;;;29.94;16.70
16613;BME280;8419;52.358;9.752;2023-06-04T10:46:12;101548.00;;;29.94;16.57
16613;BME280;8419;52.358;9.752;2023-06-04T10:48:58;101554.00;;;30.19;16.49
16613;BME280;8419;52.358;9.752;2023-06-04T10:51:44;101562.00;;;30.30;16.42
16613;BME280;8419;52.358;9.752;2023-06-04T10:54:30;101557.00;;;30.40;16.32
16613;BME280;8419;52.358;9.752;2023-06-04T10:57:17;101567.00;;;30.62;16.13
16613;BME280;8419;52.358;9.752;2023-06-04T11:00:04;101554.00;;;30.58;15.98
16613;BME280;8419;52.358;9.752;2023-06-04T11:02:55;101549.00;;;30.60;15.97
16613;BME280;8419;52.358;9.752;2023-06-04T11:05:41;101558.00;;;30.75;15.99
16613;BME280;8419;52.358;9.752;2023-06-04T11:08:29;101547.00;;;30.95;15.84
16613;BME280;8419;52.358;9.752;2023-06-04T11:11:15;101546.00;;;31.05;15.81
16613;BME280;8419;52.358;9.752;2023-06-04T11:14:08;101553.00;;;31.19;15.77
16613;BME280;8419;52.358;9.752;2023-06-04T11:16:54;101547.00;;;31.35;15.67
16613;BME280;8419;52.358;9.752;2023-06-04T11:19:42;101543.00;;;31.49;15.53
16613;BME280;8419;52.358;9.752;2023-06-04T11:22:29;101540.00;;;31.61;15.55
16613;BME280;8419;52.358;9.752;2023-06-04T11:25:15;101542.00;;;31.65;15.40
16613;BME280;8419;52.358;9.752;2023-06-04T11:28:05;101535.00;;;31.67;15.34
16613;BME280;8419;52.358;9.752;2023-06-04T11:31:00;101541.00;;;31.76;15.41
16613;BME280;8419;52.358;9.752;2023-06-04T11:33:49;101527.00;;;32.02;15.23
16613;BME280;8419;52.358;9.752;2023-06-04T11:36:37;101524.00;;;32.12;15.12
16613;BME280;8419;52.358;9.752;2023-06-04T11:39:33;101528.00;;;32.32;14.78
16613;BME280;8419;52.358;9.752;2023-06-04T11:42:22;101523.00;;;32.44;14.68
16613;BME280;8419;52.358;9.752;2023-06-04T11:45:17;101525.00;;;32.91;14.45
16613;BME280;8419;52.358;9.752;2023-06-04T11:48:05;101522.00;;;33.20;14.04
16613;BME280;8419;52.358;9.752;2023-06-04T11:50:53;101521.00;;;33.38;14.00
16613;BME280;8419;52.358;9.752;2023-06-04T11:53:39;101514.00;;;33.84;13.79
16613;BME280;8419;52.358;9.752;2023-06-04T11:56:25;101519.00;;;34.24;13.54
16613;BME280;8419;52.358;9.752;2023-06-04T11:59:11;101526.00;;;34.61;13.33
16613;BME280;8419;52.358;9.752;2023-06-04T12:02:02;101518.00;;;34.96;13.05
16613;BME280;8419;52.358;9.752;2023-06-04T12:04:48;101519.00;;;35.33;12.84
16613;BME280;8419;52.358;9.752;2023-06-04T12:07:34;101516.00;;;35.74;12.57
16613;BME280;8419;52.358;9.752;2023-06-04T12:10:23;101519.00;;;35.87;12.33
16613;BME280;8419;52.358;9.752;2023-06-04T12:13:11;101513.00;;;35.83;11.97
16613;BME280;8419;52.358;9.752;2023-06-04T12:15:58;101505.00;;;35.90;12.08
16613;BME280;8419;52.358;9.752;2023-06-04T12:18:44;101514.00;;;36.54;11.82
16613;BME280;8419;52.358;9.752;2023-06-04T12:21:29;101514.00;;;37.25;11.41
16613;BME280;8419;52.358;9.752;2023-06-04T12:24:16;101515.00;;;37.80;11.13
16613;BME280;8419;52.358;9.752;2023-06-04T12:27:03;101513.00;;;38.34;10.75
16613;BME280;8419;52.358;9.752;2023-06-04T12:29:59;101512.00;;;38.55;10.39
16613;BME280;8419;52.358;9.752;2023-06-04T12:32:45;101513.00;;;38.20;10.21
16613;BME280;8419;52.358;9.752;2023-06-04T12:35:31;101505.00;;;37.81;10.00
16613;BME280;8419;52.358;9.752;2023-06-04T12:38:16;101512.00;;;38.33;9.91
16613;BME280;8419;52.358;9.752;2023-06-04T12:41:04;101515.00;;;39.22;9.64
16613;BME280;8419;52.358;9.752;2023-06-04T12:43:50;101508.00;;;40.08;9.27
16613;BME280;8419;52.358;9.752;2023-06-04T12:46:35;101502.00;;;40.58;9.03
16613;BME280;8419;52.358;9.752;2023-06-04T12:49:21;101509.00;;;41.21;8.84
16613;BME280;8419;52.358;9.752;2023-06-04T12:52:06;101506.00;;;41.97;8.55
16613;BME280;8419;52.358;9.752;2023-06-04T12:54:52;101508.00;;;42.63;8.25
16613;BME280;8419;52.358;9.752;2023-06-04T12:57:37;101508.00;;;43.16;8.03
16613;BME280;8419;52.358;9.752;2023-06-04T13:00:23;101499.00;;;43.74;7.77
16613;BME280;8419;52.358;9.752;2023-06-04T13:03:12;101500.00;;;44.02;7.67
16613;BME280;8419;52.358;9.752;2023-06-04T13:05:59;101498.00;;;44.47;7.51
16613;BME280;8419;52.358;9.752;2023-06-04T13:08:45;101493.00;;;44.92;7.27
16613;BME280;8419;52.358;9.752;2023-06-04T13:11:31;101502.00;;;45.09;7.18
16613;BME280;8419;52.358;9.752;2023-06-04T13:14:22;101495.00;;;45.42;7.02
16613;BME280;8419;52.358;9.752;2023-06-04T13:17:09;101493.00;;;45.83;6.81
16613;BME280;8419;52.358;9.752;2023-06-04T13:19:54;101495.00;;;46.25;6.67
16613;BME280;8419;52.358;9.752;2023-06-04T13:22:39;101495.00;;;46.95;6.48
16613;BME280;8419;52.358;9.752;2023-06-04T13:25:25;101494.00;;;47.56;6.32
16613;BME280;8419;52.358;9.752;2023-06-04T13:28:10;101489.00;;;48.15;6.11
16613;BME280;8419;52.358;9.752;2023-06-04T13:30:55;101492.00;;;48.59;5.93
16613;BME280;8419;52.358;9.752;2023-06-04T13:33:41;101485.00;;;48.66;5.82
16613;BME280;8419;52.358;9.752;2023-06-04T13:36:27;101491.00;;;48.84;5.76
16613;BME280;8419;52.358;9.752;2023-06-04T13:39:12;101487.00;;;49.02;5.66
16613;BME280;8419;52.358;9.752;2023-06-04T13:41:57;101489.00;;;49.17;5.58
16613;BME280;8419;52.358;9.752;2023-06-04T13:44:42;101484.00;;;49.49;5.48
16613;BME280;8419;52.358;9.752;2023-06-04T13:47:27;101484.00;;;49.79;5.33
16613;BME280;8419;52.358;9.752;2023-06-04T13:50:12;101476.00;;;50.26;5.15
16613;BME280;8419;52.358;9.752;2023-06-04T13:52:58;101473.00;;;50.48;5.04
16613;BME280;8419;52.358;9.752;2023-06-04T13:55:44;101478.00;;;50.72;4.96
16613;BME280;8419;52.358;9.752;2023-06-04T13:58:32;101482.00;;;51.15;4.81
16613;BME280;8419;52.358;9.752;2023-06-04T14:01:17;101464.00;;;51.42;4.72
16613;BME280;8419;52.358;9.752;2023-06-04T14:04:02;101479.00;;;51.72;4.61
16613;BME280;8419;52.358;9.752;2023-06-04T14:06:51;101476.00;;;51.32;4.60
16613;BME280;8419;52.358;9.752;2023-06-04T14:09:36;101471.00;;;50.90;4.80
16613;BME280;8419;52.358;9.752;2023-06-04T14:12:22;101462.00;;;49.11;5.22
16613;BME280;8419;52.358;9.752;2023-06-04T14:15:09;101457.00;;;47.03;5.80
16613;BME280;8419;52.358;9.752;2023-06-04T14:17:55;101441.00;;;45.13;6.34
16613;BME280;8419;52.358;9.752;2023-06-04T14:20:41;101442.00;;;43.98;6.67
16613;BME280;8419;52.358;9.752;2023-06-04T14:23:26;101445.00;;;43.31;6.96
16613;BME280;8419;52.358;9.752;2023-06-04T14:26:13;101443.00;;;42.66;7.23
16613;BME280;8419;52.358;9.752;2023-06-04T14:28:59;101449.00;;;41.85;7.60
16613;BME280;8419;52.358;9.752;2023-06-04T14:31:44;101442.00;;;41.05;7.92
16613;BME280;8419;52.358;9.752;2023-06-04T14:34:31;101438.00;;;40.36;8.21
16613;BME280;8419;52.358;9.752;2023-06-04T14:37:17;101438.00;;;39.66;8.53
16613;BME280;8419;52.358;9.752;2023-06-04T14:40:06;101436.00;;;39.26;8.73
16613;BME280;8419;52.358;9.752;2023-06-04T14:42:53;101422.00;;;38.76;8.95
16613;BME280;8419;52.358;9.752;2023-06-04T14:45:38;101426.00;;;38.45;9.16